createdAt,value
2022-09-12T00:00:46.826Z,14.09
2022-09-12T00:03:32.300Z,14.07
2022-09-12T00:06:23.807Z,14.02
2022-09-12T00:09:14.133Z,13.96
2022-09-12T00:11:59.671Z,13.89
2022-09-12T00:14:44.908Z,13.85
2022-09-12T00:17:30.191Z,13.80
2022-09-12T00:20:15.472Z,13.74
2022-09-12T00:23:00.948Z,13.73
2022-09-12T00:25:48.296Z,13.72
2022-09-12T00:28:36.210Z,13.68
2022-09-12T00:31:25.004Z,13.63
2022-09-12T00:34:10.513Z,13.54
2022-09-12T00:36:55.795Z,13.50
2022-09-12T00:39:41.399Z,13.43
2022-09-12T00:42:26.670Z,13.40
2022-09-12T00:45:23.535Z,13.35
2022-09-12T00:48:21.746Z,13.32
2022-09-12T00:51:07.612Z,13.28
2022-09-12T00:53:55.426Z,13.27
2022-09-12T00:56:43.972Z,13.23
2022-09-12T00:59:38.609Z,13.14
2022-09-12T01:02:24.886Z,13.09
2022-09-12T01:05:10.455Z,13.05
2022-09-12T01:07:57.035Z,12.98
2022-09-12T01:10:42.809Z,12.92
2022-09-12T01:13:29.072Z,12.85
2022-09-12T01:16:14.942Z,12.81
2022-09-12T01:19:35.399Z,12.75
2022-09-12T01:22:51.544Z,12.72
2022-09-12T01:25:40.187Z,12.63
2022-09-12T01:28:47.878Z,12.56
2022-09-12T01:31:41.301Z,12.51
2022-09-12T01:34:34.385Z,12.45
2022-09-12T01:37:41.832Z,12.37
2022-09-12T01:40:40.740Z,12.29
2022-09-12T01:43:37.833Z,12.19
2022-09-12T01:46:51.054Z,12.16
2022-09-12T01:50:01.743Z,12.14
2022-09-12T01:52:53.503Z,12.10
2022-09-12T01:55:48.339Z,12.05
2022-09-12T01:58:41.833Z,12.00
2022-09-12T02:01:33.244Z,11.95
2022-09-12T02:04:23.177Z,11.87
2022-09-12T02:07:16.783Z,11.81
2022-09-12T02:10:22.503Z,11.77
2022-09-12T02:13:15.799Z,11.73
2022-09-12T02:16:16.015Z,11.65
2022-09-12T02:19:11.298Z,11.58
2022-09-12T02:22:00.106Z,11.54
2022-09-12T02:24:49.753Z,11.54
2022-09-12T02:27:44.646Z,11.52
2022-09-12T02:30:56.382Z,11.47
2022-09-12T02:33:49.232Z,11.44
2022-09-12T02:36:59.823Z,11.41
2022-09-12T02:39:45.701Z,11.38
2022-09-12T02:42:31.339Z,11.37
2022-09-12T02:45:17.957Z,11.38
2022-09-12T02:48:13.307Z,11.38
2022-09-12T02:50:59.136Z,11.39
2022-09-12T02:53:44.776Z,11.40
2022-09-12T02:56:31.066Z,11.40
2022-09-12T02:59:19.562Z,11.44
2022-09-12T03:02:20.097Z,11.45
2022-09-12T03:05:27.168Z,11.44
2022-09-12T03:08:15.902Z,11.36
2022-09-12T03:11:04.520Z,11.37
2022-09-12T03:13:57.337Z,11.38
2022-09-12T03:17:09.303Z,11.37
2022-09-12T03:19:57.914Z,11.39
2022-09-12T03:22:52.154Z,11.43
2022-09-12T03:26:09.536Z,11.45
2022-09-12T03:28:57.563Z,11.45
2022-09-12T03:31:57.899Z,11.43
2022-09-12T03:34:43.240Z,11.45
2022-09-12T03:37:28.498Z,11.50
2022-09-12T03:40:15.648Z,11.50
2022-09-12T03:43:00.777Z,11.49
2022-09-12T03:45:50.577Z,11.52
2022-09-12T03:48:36.326Z,11.53
2022-09-12T03:51:22.406Z,11.57
2022-09-12T03:54:07.761Z,11.59
2022-09-12T03:56:53.168Z,11.58
2022-09-12T03:59:38.538Z,11.56
2022-09-12T04:02:24.060Z,11.55
2022-09-12T04:05:09.173Z,11.54
2022-09-12T04:07:54.725Z,11.52
2022-09-12T04:10:40.437Z,11.52
2022-09-12T04:13:25.668Z,11.50
2022-09-12T04:16:12.172Z,11.49
2022-09-12T04:18:57.442Z,11.47
2022-09-12T04:21:42.840Z,11.42
2022-09-12T04:24:28.308Z,11.39
2022-09-12T04:27:13.535Z,11.38
2022-09-12T04:30:01.266Z,11.39
2022-09-12T04:32:46.718Z,11.37
2022-09-12T04:35:32.325Z,11.38
2022-09-12T04:38:17.689Z,11.35
2022-09-12T04:41:13.432Z,11.32
2022-09-12T04:44:03.490Z,11.22
2022-09-12T04:46:49.138Z,11.13
2022-09-12T04:49:34.543Z,11.12
2022-09-12T04:52:20.055Z,11.11
2022-09-12T04:55:05.859Z,11.12
2022-09-12T04:57:51.251Z,11.14
2022-09-12T05:00:36.377Z,11.15
2022-09-12T05:03:21.976Z,11.15
2022-09-12T05:06:10.208Z,11.13
2022-09-12T05:08:56.632Z,11.11
2022-09-12T05:12:03.670Z,11.12
2022-09-12T05:14:49.738Z,11.14
2022-09-12T05:17:35.284Z,11.14
2022-09-12T05:20:21.062Z,11.13
2022-09-12T05:23:06.563Z,11.15
2022-09-12T05:25:53.000Z,11.12
2022-09-12T05:28:39.135Z,11.13
2022-09-12T05:31:26.561Z,11.14
2022-09-12T05:34:12.772Z,11.14
2022-09-12T05:36:58.552Z,11.20
2022-09-12T05:39:44.245Z,11.24
2022-09-12T05:42:30.001Z,11.28
2022-09-12T05:45:15.616Z,11.32
2022-09-12T05:48:02.959Z,11.38
2022-09-12T05:50:48.477Z,11.43
2022-09-12T05:53:34.721Z,11.45
2022-09-12T05:56:25.879Z,11.47
2022-09-12T05:59:15.163Z,11.48
2022-09-12T06:02:00.510Z,11.46
2022-09-12T06:04:46.515Z,11.48
2022-09-12T06:07:32.909Z,11.51
2022-09-12T06:10:18.632Z,11.58
2022-09-12T06:13:04.363Z,11.64
2022-09-12T06:15:50.275Z,11.70
2022-09-12T06:18:37.166Z,11.75
2022-09-12T06:21:23.553Z,11.80
2022-09-12T06:24:08.917Z,11.88
2022-09-12T06:26:54.791Z,11.93
2022-09-12T06:29:40.339Z,11.95
2022-09-12T06:32:25.924Z,11.96
2022-09-12T06:35:12.180Z,12.05
2022-09-12T06:37:57.816Z,12.12
2022-09-12T06:40:44.653Z,12.21
2022-09-12T06:43:30.885Z,12.19
2022-09-12T06:46:16.258Z,12.22
2022-09-12T06:49:01.912Z,12.28
2022-09-12T06:51:48.340Z,12.36
2022-09-12T06:54:34.107Z,12.45
2022-09-12T06:57:19.310Z,12.56
2022-09-12T07:00:05.882Z,12.66
2022-09-12T07:02:56.681Z,12.83
2022-09-12T07:05:42.718Z,12.90
2022-09-12T07:08:31.707Z,12.92
2022-09-12T07:11:23.841Z,12.88
2022-09-12T07:14:13.219Z,12.91
2022-09-12T07:16:59.033Z,13.04
2022-09-12T07:19:44.386Z,13.12
2022-09-12T07:22:29.704Z,13.19
2022-09-12T07:25:15.168Z,13.21
2022-09-12T07:28:00.822Z,13.29
2022-09-12T07:30:46.439Z,13.41
2022-09-12T07:33:32.630Z,13.50
2022-09-12T07:36:20.753Z,13.56
2022-09-12T07:39:06.420Z,13.61
2022-09-12T07:41:51.755Z,13.68
2022-09-12T07:44:37.312Z,13.70
2022-09-12T07:47:22.586Z,13.72
2022-09-12T07:50:08.326Z,13.79
2022-09-12T07:52:55.314Z,13.84
2022-09-12T07:55:41.276Z,13.86
2022-09-12T07:58:26.921Z,13.89
2022-09-12T08:01:13.373Z,13.93
2022-09-12T08:04:00.023Z,13.98
2022-09-12T08:06:45.653Z,14.05
2022-09-12T08:09:31.099Z,14.10
2022-09-12T08:12:17.885Z,14.12
2022-09-12T08:15:03.698Z,14.20
2022-09-12T08:17:49.147Z,14.29
2022-09-12T08:20:34.320Z,14.36
2022-09-12T08:23:21.970Z,14.42
2022-09-12T08:26:07.502Z,14.47
2022-09-12T08:28:53.900Z,14.53
2022-09-12T08:31:41.333Z,14.61
2022-09-12T08:34:27.129Z,14.68
2022-09-12T08:37:12.304Z,14.71
2022-09-12T08:39:58.056Z,14.78
2022-09-12T08:48:28.930Z,15.08
2022-09-12T08:51:19.376Z,15.15
2022-09-12T08:54:19.046Z,15.22
2022-09-12T08:57:06.904Z,15.31
2022-09-12T08:59:53.186Z,15.37
2022-09-12T09:03:10.106Z,15.43
2022-09-12T09:06:01.767Z,15.48
2022-09-12T09:09:23.822Z,15.54
2022-09-12T09:12:15.722Z,15.59
2022-09-12T09:15:24.868Z,15.64
2022-09-12T09:18:31.871Z,15.73
2022-09-12T09:21:23.818Z,15.87
2022-09-12T09:24:14.794Z,15.94
2022-09-12T09:27:41.637Z,16.02
2022-09-12T09:30:28.954Z,16.15
2022-09-12T09:33:27.898Z,16.25
2022-09-12T09:36:35.179Z,16.37
2022-09-12T09:39:56.192Z,16.47
2022-09-12T09:43:03.180Z,16.53
2022-09-12T09:45:50.125Z,16.63
2022-09-12T09:48:38.101Z,16.74
2022-09-12T09:51:30.017Z,16.87
2022-09-12T09:54:25.731Z,16.93
2022-09-12T09:57:36.337Z,16.95
2022-09-12T10:00:32.403Z,16.97
2022-09-12T10:03:26.795Z,17.04
2022-09-12T10:06:36.087Z,17.14
2022-09-12T10:09:25.906Z,17.18
2022-09-12T10:12:28.537Z,17.25
2022-09-12T10:15:29.553Z,17.33
2022-09-12T10:18:34.336Z,17.45
2022-09-12T10:21:33.507Z,17.52
2022-09-12T10:24:25.854Z,17.61
2022-09-12T10:27:20.251Z,17.69
2022-09-12T10:30:14.773Z,17.76
2022-09-12T10:33:11.047Z,17.75
2022-09-12T10:35:57.286Z,17.76
2022-09-12T10:38:51.065Z,17.77
2022-09-12T10:41:39.937Z,17.69
2022-09-12T10:44:28.651Z,17.72
2022-09-12T10:56:22.775Z,17.67
2022-09-12T11:00:15.085Z,17.59
2022-09-12T11:03:27.324Z,17.53
2022-09-12T11:07:16.540Z,17.51
2022-09-12T11:15:30.871Z,17.57
2022-09-12T11:18:27.457Z,17.67
2022-09-12T11:21:46.836Z,17.79
2022-09-12T11:24:48.974Z,17.94
2022-09-12T11:27:48.125Z,18.09
2022-09-12T11:31:04.855Z,18.29
2022-09-12T11:34:58.311Z,18.52
2022-09-12T11:48:17.480Z,19.28
2022-09-12T12:00:56.150Z,19.67
2022-09-12T12:03:55.609Z,19.55
2022-09-12T12:06:54.041Z,19.47
2022-09-12T12:09:52.993Z,19.49
2022-09-12T12:27:44.323Z,19.43
2022-09-12T12:44:33.583Z,19.67
2022-09-12T12:48:08.118Z,19.97
2022-09-12T12:50:53.926Z,19.97
2022-09-12T12:53:42.032Z,19.96
2022-09-12T13:01:23.260Z,20.16
2022-09-12T13:04:46.454Z,20.22
2022-09-12T13:07:36.999Z,20.26
2022-09-12T13:10:27.131Z,20.55
2022-09-12T13:13:25.491Z,20.80
2022-09-12T13:16:11.467Z,21.08
2022-09-12T13:23:03.892Z,20.88
2022-09-12T13:26:24.203Z,20.65
2022-09-12T13:29:17.414Z,20.41
2022-09-12T13:32:03.517Z,20.28
2022-09-12T13:35:52.139Z,20.22
2022-09-12T13:42:42.839Z,20.07
2022-09-12T13:45:28.497Z,20.04
2022-09-12T13:48:18.366Z,20.00
2022-09-12T13:51:05.927Z,19.99
2022-09-12T13:53:53.152Z,20.00
2022-09-12T13:56:47.722Z,19.95
2022-09-12T14:00:06.233Z,19.96
2022-09-12T14:03:14.374Z,19.98
2022-09-12T14:06:01.581Z,19.99
2022-09-12T14:08:48.386Z,20.04
2022-09-12T14:12:27.345Z,20.09
2022-09-12T14:15:38.819Z,20.11
2022-09-12T14:18:45.397Z,20.11
2022-09-12T14:21:36.607Z,20.10
2022-09-12T14:24:26.415Z,20.11
2022-09-12T14:27:12.644Z,20.10
2022-09-12T14:30:09.480Z,20.08
2022-09-12T14:33:18.962Z,20.08
2022-09-12T14:36:43.573Z,20.13
2022-09-12T15:30:54.257Z,20.21
2022-09-12T15:34:09.522Z,20.20
2022-09-12T15:36:55.275Z,20.20
2022-09-12T15:40:13.379Z,20.21
2022-09-12T15:43:05.295Z,20.18
2022-09-12T15:45:51.787Z,20.17
2022-09-12T15:48:40.134Z,20.14
2022-09-12T15:51:25.679Z,20.12
2022-09-12T15:54:21.669Z,20.07
2022-09-12T15:57:08.051Z,20.05
2022-09-12T15:59:59.739Z,20.02
2022-09-12T16:02:47.025Z,19.97
2022-09-12T16:05:33.067Z,19.93
2022-09-12T16:08:18.484Z,19.88
2022-09-12T16:11:24.880Z,19.86
2022-09-12T16:14:13.373Z,19.83
2022-09-12T16:16:59.267Z,19.79
2022-09-12T16:19:44.846Z,19.77
2022-09-12T16:22:30.579Z,19.76
2022-09-12T16:25:17.323Z,19.70
2022-09-12T16:28:06.115Z,19.68
2022-09-12T16:30:59.579Z,19.66
2022-09-12T16:34:24.310Z,19.63
2022-09-12T16:37:09.785Z,19.54
2022-09-12T16:39:55.823Z,19.42
2022-09-12T16:42:43.760Z,19.37
2022-09-12T16:45:48.448Z,19.33
2022-09-12T16:48:48.057Z,19.24
2022-09-12T16:51:47.540Z,19.18
2022-09-12T16:57:27.391Z,18.98
2022-09-12T17:00:12.734Z,18.91
2022-09-12T17:02:59.261Z,18.85
2022-09-12T17:05:44.902Z,18.81
2022-09-12T17:08:31.017Z,18.72
2022-09-12T17:11:17.941Z,18.65
2022-09-12T17:14:07.131Z,18.55
2022-09-12T17:16:53.511Z,18.47
2022-09-12T17:19:39.127Z,18.41
2022-09-12T17:22:24.660Z,18.30
2022-09-12T17:25:10.581Z,18.20
2022-09-12T17:27:55.833Z,18.12
2022-09-12T17:30:41.824Z,18.03
2022-09-12T17:33:28.867Z,17.95
2022-09-12T17:36:17.057Z,17.88
2022-09-12T17:39:04.002Z,17.80
2022-09-12T17:41:52.047Z,17.73
2022-09-12T17:44:38.070Z,17.48
2022-09-12T17:47:23.428Z,17.37
2022-09-12T17:50:30.912Z,17.34
2022-09-12T17:53:16.168Z,17.31
2022-09-12T17:56:05.662Z,17.28
2022-09-12T17:58:51.231Z,17.23
2022-09-12T18:01:55.126Z,17.17
2022-09-12T18:04:41.533Z,17.09
2022-09-12T18:07:26.867Z,17.05
2022-09-12T18:10:12.665Z,16.96
2022-09-12T18:12:58.805Z,16.87
2022-09-12T18:15:44.420Z,16.76
2022-09-12T18:18:29.913Z,16.67
2022-09-12T18:21:15.555Z,16.63
2022-09-12T18:24:01.415Z,16.56
2022-09-12T18:26:47.018Z,16.50
2022-09-12T18:29:32.315Z,16.47
2022-09-12T18:32:18.105Z,16.45
2022-09-12T18:35:03.585Z,16.44
2022-09-12T18:37:49.351Z,16.40
2022-09-12T18:40:34.599Z,16.34
2022-09-12T18:43:20.086Z,16.26
2022-09-12T18:46:12.231Z,16.19
2022-09-12T18:48:59.045Z,16.14
2022-09-12T18:51:44.548Z,16.09
2022-09-12T18:54:30.066Z,16.04
2022-09-12T18:57:15.453Z,15.99
2022-09-12T19:00:03.261Z,15.93
2022-09-12T19:02:49.144Z,15.88
2022-09-12T19:05:35.531Z,15.80
2022-09-12T19:08:20.834Z,15.70
2022-09-12T19:11:07.929Z,15.63
2022-09-12T19:13:54.481Z,15.59
2022-09-12T19:16:40.056Z,15.56
2022-09-12T19:19:25.361Z,15.48
2022-09-12T19:22:10.856Z,15.44
2022-09-12T19:24:56.211Z,15.37
2022-09-12T19:27:41.732Z,15.28
2022-09-12T19:30:27.202Z,15.23
2022-09-12T19:33:12.891Z,15.13
2022-09-12T19:36:03.264Z,15.02
2022-09-12T19:38:49.007Z,14.94
2022-09-12T19:41:35.073Z,14.85
2022-09-12T19:44:20.460Z,14.77
2022-09-12T19:47:06.128Z,14.69
2022-09-12T19:49:52.508Z,14.65
2022-09-12T19:52:37.975Z,14.58
2022-09-12T19:55:23.647Z,14.50
2022-09-12T19:58:09.194Z,14.44
2022-09-12T20:00:56.037Z,14.41
2022-09-12T20:03:42.649Z,14.35
2022-09-12T20:06:28.826Z,14.25
2022-09-12T20:09:14.309Z,14.18
2022-09-12T20:11:59.693Z,14.12
2022-09-12T20:14:45.020Z,14.02
2022-09-12T20:17:31.432Z,13.92
2022-09-12T20:20:16.989Z,13.85
2022-09-12T20:23:02.934Z,13.78
2022-09-12T20:25:48.855Z,13.73
2022-09-12T20:28:38.615Z,13.68
2022-09-12T20:31:24.291Z,13.65
2022-09-12T20:34:18.707Z,13.61
2022-09-12T20:37:04.045Z,13.55
2022-09-12T20:39:50.974Z,13.48
2022-09-12T20:42:36.733Z,13.42
2022-09-12T20:45:22.703Z,13.37
2022-09-12T20:48:07.949Z,13.29
2022-09-12T20:50:53.576Z,13.23
2022-09-12T20:53:39.168Z,13.15
2022-09-12T20:56:26.698Z,13.09
2022-09-12T20:59:12.774Z,13.05
2022-09-12T21:01:58.625Z,12.98
2022-09-12T21:04:44.377Z,12.94
2022-09-12T21:07:30.830Z,12.92
2022-09-12T21:10:16.046Z,12.89
2022-09-12T21:13:01.718Z,12.86
2022-09-12T21:15:47.020Z,12.82
2022-09-12T21:18:34.526Z,12.78
2022-09-12T21:21:19.876Z,12.73
2022-09-12T21:24:05.763Z,12.68
2022-09-12T21:29:40.053Z,12.57
2022-09-12T21:32:25.749Z,12.50
2022-09-12T21:35:11.194Z,12.45
2022-09-12T21:37:57.298Z,12.39
2022-09-12T21:40:42.869Z,12.33
2022-09-12T21:43:28.515Z,12.27
2022-09-12T21:46:14.071Z,12.24
2022-09-12T21:48:59.534Z,12.18
2022-09-12T21:51:44.965Z,12.13
2022-09-12T21:54:30.352Z,12.08
2022-09-12T21:57:15.887Z,12.00
2022-09-12T22:00:01.626Z,11.95
2022-09-12T22:02:47.945Z,11.88
2022-09-12T22:05:34.380Z,11.80
2022-09-12T22:08:19.870Z,11.71
2022-09-12T22:11:10.776Z,11.69
2022-09-12T22:13:56.646Z,11.67
2022-09-12T22:16:41.949Z,11.61
2022-09-12T22:19:27.451Z,11.57
2022-09-12T22:22:31.558Z,11.49
2022-09-12T22:25:17.083Z,11.44
2022-09-12T22:28:02.858Z,11.38
2022-09-12T22:30:51.039Z,11.33
2022-09-12T22:33:36.484Z,11.30
2022-09-12T22:36:21.814Z,11.22
2022-09-12T22:39:07.730Z,11.21
2022-09-12T22:41:53.240Z,11.21
2022-09-12T22:44:38.608Z,11.22
2022-09-12T22:47:24.123Z,11.22
2022-09-12T22:50:09.575Z,11.22
2022-09-12T22:52:55.140Z,11.20
2022-09-12T22:55:43.774Z,11.15
2022-09-12T22:58:29.623Z,11.13
2022-09-12T23:01:15.238Z,11.10
2022-09-12T23:04:01.573Z,11.03
2022-09-12T23:06:47.653Z,10.94
2022-09-12T23:09:35.392Z,10.90
2022-09-12T23:12:21.164Z,10.87
2022-09-12T23:15:07.065Z,10.85
2022-09-12T23:17:52.300Z,10.82
2022-09-12T23:20:37.809Z,10.80
2022-09-12T23:23:23.096Z,10.79
2022-09-12T23:26:12.633Z,10.78
2022-09-12T23:29:01.222Z,10.76
2022-09-12T23:31:47.297Z,10.73
2022-09-12T23:34:33.545Z,10.69
2022-09-12T23:37:21.782Z,10.64
2022-09-12T23:40:08.297Z,10.61
2022-09-12T23:42:53.442Z,10.59
2022-09-12T23:45:38.649Z,10.58
2022-09-12T23:48:24.309Z,10.55
2022-09-12T23:51:11.162Z,10.52
2022-09-12T23:53:57.015Z,10.49
2022-09-12T23:56:42.698Z,10.46
2022-09-12T23:59:28.183Z,10.45
